createdAt,value
2023-03-15T00:01:18.643Z,28.50
2023-03-15T00:03:46.805Z,28.40
2023-03-15T00:06:14.970Z,28.10
2023-03-15T00:08:47.487Z,24.60
2023-03-15T00:11:18.616Z,20.70
2023-03-15T00:13:46.707Z,25.10
2023-03-15T00:16:18.593Z,24.30
2023-03-15T00:18:47.389Z,25.10
2023-03-15T00:21:15.594Z,25.40
2023-03-15T00:23:43.689Z,24.10
2023-03-15T00:26:12.135Z,23.40
2023-03-15T00:28:40.238Z,21.70
2023-03-15T00:31:13.395Z,12.20
2023-03-15T00:33:41.743Z,25.40
2023-03-15T00:36:10.612Z,26.60
2023-03-15T00:38:39.532Z,21.20
2023-03-15T00:41:09.037Z,13.60
2023-03-15T00:43:37.159Z,19.30
2023-03-15T00:46:05.440Z,17.10
2023-03-15T00:48:35.210Z,15.20
2023-03-15T00:51:03.399Z,13.10
2023-03-15T00:53:31.558Z,14.10
2023-03-15T00:56:03.246Z,14.40
2023-03-15T00:58:31.245Z,14.20
2023-03-15T01:00:59.233Z,13.10
2023-03-15T01:03:28.560Z,12.70
2023-03-15T01:05:56.858Z,13.30
2023-03-15T01:08:25.419Z,12.50
2023-03-15T01:10:54.082Z,12.70
2023-03-15T01:13:23.229Z,12.70
2023-03-15T01:15:51.322Z,12.40
2023-03-15T01:18:19.465Z,12.30
2023-03-15T01:20:47.491Z,8.50
2023-03-15T01:23:16.115Z,12.70
2023-03-15T01:25:44.183Z,13.10
2023-03-15T01:28:12.196Z,12.10
2023-03-15T01:30:40.241Z,12.70
2023-03-15T01:33:08.179Z,13.20
2023-03-15T01:35:36.292Z,12.50
2023-03-15T01:38:04.443Z,7.80
2023-03-15T01:40:33.452Z,13.40
2023-03-15T01:43:04.638Z,12.60
2023-03-15T01:46:10.797Z,12.20
2023-03-15T01:48:46.653Z,7.50
2023-03-15T01:51:25.444Z,12.20
2023-03-15T01:54:07.533Z,12.90
2023-03-15T01:56:36.785Z,12.00
2023-03-15T01:59:05.730Z,6.40
2023-03-15T02:01:33.893Z,12.40
2023-03-15T02:04:05.537Z,12.60
2023-03-15T02:06:35.110Z,12.40
2023-03-15T02:09:06.344Z,13.70
2023-03-15T02:11:36.206Z,13.90
2023-03-15T02:14:04.605Z,8.30
2023-03-15T02:16:32.909Z,12.90
2023-03-15T02:19:06.317Z,7.40
2023-03-15T02:21:59.730Z,14.20
2023-03-15T02:24:34.623Z,14.30
2023-03-15T02:27:03.769Z,8.60
2023-03-15T02:29:32.893Z,8.90
2023-03-15T02:32:01.033Z,13.90
2023-03-15T02:34:29.185Z,14.10
2023-03-15T02:36:57.268Z,14.50
2023-03-15T02:39:28.368Z,14.00
2023-03-15T02:41:58.002Z,7.20
2023-03-15T02:44:33.648Z,14.70
2023-03-15T02:47:05.258Z,13.90
2023-03-15T02:49:36.530Z,7.30
2023-03-15T02:52:05.264Z,14.30
2023-03-15T02:54:34.357Z,14.50
2023-03-15T02:57:03.059Z,6.90
2023-03-15T02:59:31.602Z,12.50
2023-03-15T03:01:59.730Z,13.30
2023-03-15T03:04:27.838Z,15.50
2023-03-15T03:06:55.901Z,15.10
2023-03-15T03:09:25.730Z,8.50
2023-03-15T03:11:54.100Z,7.60
2023-03-15T03:14:23.944Z,8.60
2023-03-15T03:16:52.251Z,13.00
2023-03-15T03:19:20.340Z,13.60
2023-03-15T03:21:48.349Z,13.50
2023-03-15T03:24:17.013Z,13.80
2023-03-15T03:26:46.293Z,8.00
2023-03-15T03:29:16.771Z,12.90
2023-03-15T03:31:45.724Z,13.60
2023-03-15T03:34:15.753Z,13.70
2023-03-15T03:36:43.959Z,6.90
2023-03-15T03:39:12.677Z,12.70
2023-03-15T03:41:40.725Z,13.30
2023-03-15T03:44:10.176Z,10.10
2023-03-15T03:46:38.829Z,98.30
2023-03-15T03:49:06.914Z,24.10
2023-03-15T03:51:35.304Z,28.40
2023-03-15T03:54:05.796Z,15.50
2023-03-15T03:56:33.876Z,8.90
2023-03-15T03:59:02.348Z,16.70
2023-03-15T04:01:42.226Z,7.90
2023-03-15T04:04:15.069Z,16.10
2023-03-15T04:06:46.361Z,7.60
2023-03-15T04:09:16.745Z,18.40
2023-03-15T04:11:47.229Z,8.30
2023-03-15T04:14:16.104Z,17.20
2023-03-15T04:16:46.291Z,16.30
2023-03-15T04:19:17.625Z,6.40
2023-03-15T04:21:48.756Z,14.90
2023-03-15T04:24:27.755Z,6.40
2023-03-15T04:27:07.067Z,7.80
2023-03-15T04:30:05.849Z,6.60
2023-03-15T04:32:42.610Z,14.50
2023-03-15T04:35:18.808Z,6.40
2023-03-15T04:38:26.921Z,6.10
2023-03-15T04:41:18.536Z,5.30
2023-03-15T04:44:18.831Z,7.40
2023-03-15T04:47:22.804Z,12.00
2023-03-15T04:50:01.220Z,6.10
2023-03-15T04:52:49.306Z,6.50
2023-03-15T04:55:55.680Z,6.10
2023-03-15T04:58:57.292Z,10.40
2023-03-15T05:01:48.201Z,5.30
2023-03-15T05:04:36.569Z,6.10
2023-03-15T05:07:30.338Z,10.60
2023-03-15T05:10:25.390Z,6.50
2023-03-15T05:13:19.007Z,5.70
2023-03-15T05:16:17.134Z,4.80
2023-03-15T05:19:21.904Z,6.60
2023-03-15T05:21:58.662Z,5.20
2023-03-15T05:24:40.752Z,10.10
2023-03-15T05:27:20.942Z,5.50
2023-03-15T05:30:11.790Z,10.40
2023-03-15T05:33:05.971Z,6.90
2023-03-15T05:36:01.039Z,6.00
2023-03-15T05:38:47.669Z,6.80
2023-03-15T05:41:23.943Z,4.20
2023-03-15T05:44:23.166Z,4.70
2023-03-15T05:47:20.623Z,5.50
2023-03-15T05:50:06.972Z,8.80
2023-03-15T05:53:01.034Z,9.70
2023-03-15T05:55:41.710Z,9.60
2023-03-15T05:58:29.921Z,12.30
2023-03-15T06:01:27.113Z,11.70
2023-03-15T06:04:05.098Z,13.20
2023-03-15T06:06:34.019Z,4.60
2023-03-15T06:09:03.055Z,6.00
2023-03-15T06:11:31.292Z,5.60
2023-03-15T06:13:59.985Z,4.90
2023-03-15T06:16:42.010Z,9.60
2023-03-15T06:19:10.045Z,9.70
2023-03-15T06:21:38.203Z,9.40
2023-03-15T06:24:11.001Z,5.40
2023-03-15T06:26:39.355Z,10.00
2023-03-15T06:29:07.604Z,9.30
2023-03-15T06:31:35.705Z,5.40
2023-03-15T06:34:05.727Z,10.40
2023-03-15T06:36:35.061Z,10.50
2023-03-15T06:39:03.205Z,11.40
2023-03-15T06:41:32.568Z,11.80
2023-03-15T06:44:09.177Z,11.50
2023-03-15T06:46:37.591Z,11.80
2023-03-15T06:49:07.166Z,11.00
2023-03-15T06:51:35.285Z,10.80
2023-03-15T06:54:04.385Z,10.40
2023-03-15T06:56:37.332Z,10.30
2023-03-15T06:59:05.583Z,10.70
2023-03-15T07:01:33.675Z,10.30
2023-03-15T07:04:01.685Z,11.40
2023-03-15T07:06:29.721Z,12.70
2023-03-15T07:08:57.784Z,7.30
2023-03-15T07:11:25.760Z,11.80
2023-03-15T07:13:53.828Z,12.10
2023-03-15T07:16:21.956Z,11.40
2023-03-15T07:18:50.515Z,11.90
2023-03-15T07:21:18.795Z,11.90
2023-03-15T07:23:46.813Z,11.90
2023-03-15T07:26:14.945Z,11.70
2023-03-15T07:28:44.792Z,11.20
2023-03-15T07:31:12.783Z,12.10
2023-03-15T07:33:40.963Z,11.20
2023-03-15T07:36:09.078Z,10.80
2023-03-15T07:38:37.179Z,10.60
2023-03-15T07:41:06.091Z,11.20
2023-03-15T07:43:34.363Z,11.00
2023-03-15T07:46:18.938Z,10.50
2023-03-15T07:48:50.143Z,9.90
2023-03-15T07:51:18.204Z,11.30
2023-03-15T07:53:46.258Z,10.80
2023-03-15T07:56:14.250Z,12.30
2023-03-15T07:58:42.274Z,12.40
2023-03-15T08:01:10.362Z,12.30
2023-03-15T08:03:38.362Z,12.50
2023-03-15T08:06:06.878Z,12.30
2023-03-15T08:08:35.005Z,10.60
2023-03-15T08:11:05.120Z,11.60
2023-03-15T08:13:33.890Z,11.70
2023-03-15T08:16:02.079Z,10.90
2023-03-15T08:18:30.279Z,11.40
2023-03-15T08:20:59.284Z,10.70
2023-03-15T08:23:27.360Z,10.20
2023-03-15T08:25:55.333Z,10.20
2023-03-15T08:28:23.349Z,12.80
2023-03-15T08:30:51.372Z,13.20
2023-03-15T08:33:19.405Z,13.20
2023-03-15T08:35:52.304Z,12.90
2023-03-15T08:38:21.136Z,12.50
2023-03-15T08:40:49.221Z,11.30
2023-03-15T08:43:17.341Z,10.80
2023-03-15T08:46:00.215Z,10.70
2023-03-15T08:48:29.766Z,12.30
2023-03-15T08:51:05.292Z,12.90
2023-03-15T08:53:33.477Z,11.70
2023-03-15T08:56:01.464Z,11.20
2023-03-15T08:58:29.556Z,10.40
2023-03-15T09:00:57.668Z,10.20
2023-03-15T09:03:25.651Z,9.30
2023-03-15T09:05:57.793Z,10.40
2023-03-15T09:08:26.395Z,9.40
2023-03-15T09:10:57.580Z,8.80
2023-03-15T09:13:25.771Z,9.40
2023-03-15T09:15:53.980Z,8.90
2023-03-15T09:18:22.117Z,8.20
2023-03-15T09:20:50.178Z,9.00
2023-03-15T09:23:18.230Z,9.20
2023-03-15T09:25:46.188Z,8.70
2023-03-15T09:28:14.314Z,9.60
2023-03-15T09:30:42.686Z,10.50
2023-03-15T09:33:14.759Z,10.50
2023-03-15T09:35:42.975Z,10.50
2023-03-15T09:38:11.801Z,10.90
2023-03-15T09:40:41.515Z,11.70
2023-03-15T09:43:10.280Z,10.50
2023-03-15T09:45:48.781Z,10.10
2023-03-15T09:48:26.009Z,10.60
2023-03-15T09:50:59.295Z,10.50
2023-03-15T09:53:29.612Z,10.90
2023-03-15T09:55:57.913Z,10.30
2023-03-15T09:58:32.604Z,9.70
2023-03-15T10:01:07.469Z,9.80
2023-03-15T10:03:48.299Z,9.00
2023-03-15T10:06:22.892Z,10.50
2023-03-15T10:08:53.949Z,11.50
2023-03-15T10:11:34.163Z,10.80
2023-03-15T10:14:47.344Z,14.20
2023-03-15T10:17:20.841Z,14.80
2023-03-15T10:19:49.969Z,11.60
2023-03-15T10:22:41.201Z,10.10
2023-03-15T10:25:16.804Z,10.10
2023-03-15T10:27:59.480Z,9.40
2023-03-15T10:30:33.064Z,10.50
2023-03-15T10:33:21.547Z,10.00
2023-03-15T10:35:51.016Z,10.90
2023-03-15T10:38:20.954Z,10.00
2023-03-15T10:40:59.340Z,12.10
2023-03-15T10:43:37.078Z,10.90
2023-03-15T10:46:12.209Z,10.60
2023-03-15T10:48:51.777Z,10.90
2023-03-15T10:51:23.415Z,10.80
2023-03-15T10:54:16.498Z,11.70
2023-03-15T10:56:50.000Z,16.70
2023-03-15T10:59:24.280Z,17.50
2023-03-15T11:02:08.028Z,16.20
2023-03-15T11:04:36.115Z,12.90
2023-03-15T11:07:04.274Z,13.60
2023-03-15T11:09:45.805Z,13.80
2023-03-15T11:12:21.647Z,14.60
2023-03-15T11:14:50.838Z,12.80
2023-03-15T11:17:21.880Z,12.40
2023-03-15T11:20:42.920Z,11.60
2023-03-15T11:23:41.044Z,11.20
2023-03-15T11:26:29.413Z,11.60
2023-03-15T11:29:03.364Z,10.70
2023-03-15T11:31:31.447Z,10.40
2023-03-15T11:34:08.396Z,10.30
2023-03-15T11:36:37.901Z,10.30
2023-03-15T11:39:05.876Z,9.90
2023-03-15T11:41:41.133Z,9.60
2023-03-15T11:44:15.311Z,9.40
2023-03-15T11:46:51.112Z,10.80
2023-03-15T11:49:38.099Z,9.50
2023-03-15T11:52:06.406Z,9.50
2023-03-15T11:54:34.621Z,10.00
2023-03-15T11:57:06.481Z,10.60
2023-03-15T11:59:37.023Z,10.00
2023-03-15T12:02:11.097Z,13.50
2023-03-15T12:04:43.965Z,14.30
2023-03-15T12:07:17.738Z,11.50
2023-03-15T12:09:52.703Z,9.70
2023-03-15T12:12:26.477Z,10.10
2023-03-15T12:15:19.460Z,9.30
2023-03-15T12:17:50.767Z,9.10
2023-03-15T12:20:27.471Z,9.50
2023-03-15T12:23:07.559Z,9.40
2023-03-15T12:25:45.454Z,8.70
2023-03-15T12:28:22.049Z,8.40
2023-03-15T12:30:55.144Z,7.70
2023-03-15T12:33:23.204Z,8.00
2023-03-15T12:35:51.331Z,7.20
2023-03-15T12:38:23.616Z,8.90
2023-03-15T12:40:56.125Z,7.80
2023-03-15T12:43:43.825Z,8.40
2023-03-15T12:46:36.912Z,8.00
2023-03-15T12:49:26.164Z,7.90
2023-03-15T12:51:59.606Z,8.40
2023-03-15T12:54:55.529Z,8.10
2023-03-15T12:57:27.371Z,7.90
2023-03-15T13:00:01.349Z,8.90
2023-03-15T13:02:53.728Z,8.50
2023-03-15T13:05:27.800Z,8.50
2023-03-15T13:07:58.212Z,8.70
2023-03-15T13:10:37.905Z,8.70
2023-03-15T13:13:54.126Z,9.20
2023-03-15T13:16:25.400Z,8.90
2023-03-15T13:19:11.713Z,8.00
2023-03-15T13:21:42.975Z,8.60
2023-03-15T13:24:20.115Z,8.40
2023-03-15T13:26:57.441Z,8.80
2023-03-15T13:29:32.414Z,9.30
2023-03-15T13:32:21.539Z,8.50
2023-03-15T13:34:49.956Z,9.50
2023-03-15T13:37:25.890Z,9.40
2023-03-15T13:40:01.871Z,8.30
2023-03-15T13:42:30.027Z,7.90
2023-03-15T13:45:03.852Z,7.50
2023-03-15T13:47:32.032Z,7.70
2023-03-15T13:50:03.389Z,7.90
2023-03-15T13:52:31.413Z,7.60
2023-03-15T13:54:59.555Z,7.30
2023-03-15T13:57:27.588Z,7.00
2023-03-15T14:00:00.790Z,6.90
2023-03-15T14:02:35.730Z,6.30
2023-03-15T14:05:06.670Z,6.20
2023-03-15T14:07:39.234Z,6.40
2023-03-15T14:10:09.995Z,7.20
2023-03-15T14:12:38.116Z,7.30
2023-03-15T14:15:17.217Z,9.50
2023-03-15T14:17:53.900Z,11.90
2023-03-15T14:20:25.300Z,11.40
2023-03-15T14:22:53.365Z,11.20
2023-03-15T14:25:21.681Z,10.60
2023-03-15T14:27:49.717Z,10.70
2023-03-15T14:30:24.469Z,10.60
2023-03-15T14:32:57.267Z,10.60
2023-03-15T14:35:30.070Z,12.20
2023-03-15T14:38:07.885Z,13.00
2023-03-15T14:40:37.575Z,13.30
2023-03-15T14:43:07.052Z,15.80
2023-03-15T14:45:35.887Z,13.60
2023-03-15T14:48:08.501Z,13.80
2023-03-15T14:50:41.091Z,12.40
2023-03-15T14:53:09.952Z,12.30
2023-03-15T14:55:38.123Z,12.00
2023-03-15T14:58:14.030Z,12.80
2023-03-15T15:00:42.532Z,13.20
2023-03-15T15:03:22.430Z,12.90
2023-03-15T15:05:51.353Z,12.40
2023-03-15T15:08:22.413Z,13.40
2023-03-15T15:10:52.009Z,12.90
2023-03-15T15:13:25.128Z,13.20
2023-03-15T15:15:56.569Z,12.80
2023-03-15T15:18:26.343Z,13.10
2023-03-15T15:20:58.866Z,11.70
2023-03-15T15:23:31.696Z,12.10
2023-03-15T15:26:01.483Z,11.70
2023-03-15T15:28:36.511Z,11.90
2023-03-15T15:31:08.285Z,11.40
2023-03-15T15:33:36.485Z,10.90
2023-03-15T15:36:07.289Z,12.30
2023-03-15T15:38:39.070Z,11.60
2023-03-15T15:41:12.596Z,11.80
2023-03-15T15:43:41.377Z,12.50
2023-03-15T15:46:11.420Z,11.10
2023-03-15T15:48:40.546Z,12.20
2023-03-15T15:51:38.606Z,12.10
2023-03-15T15:56:37.089Z,11.70
2023-03-15T15:59:05.342Z,11.70
2023-03-15T16:01:33.440Z,11.80
2023-03-15T16:04:02.337Z,12.10
2023-03-15T16:06:30.630Z,12.40
2023-03-15T16:08:58.683Z,12.40
2023-03-15T16:11:27.158Z,13.00
2023-03-15T16:13:55.365Z,11.90
2023-03-15T16:16:23.496Z,11.40
2023-03-15T16:18:51.574Z,11.60
2023-03-15T16:21:38.728Z,11.40
2023-03-15T16:24:23.318Z,11.50
2023-03-15T16:26:51.470Z,12.00
2023-03-15T16:29:21.481Z,10.60
2023-03-15T16:31:49.940Z,10.80
2023-03-15T16:34:18.632Z,10.30
2023-03-15T16:36:49.373Z,10.30
2023-03-15T16:39:17.954Z,9.80
2023-03-15T16:41:46.103Z,10.40
2023-03-15T16:44:19.420Z,10.30
2023-03-15T16:46:47.695Z,10.80
2023-03-15T16:49:15.832Z,10.90
2023-03-15T16:51:46.465Z,10.70
2023-03-15T16:54:24.324Z,10.20
2023-03-15T16:57:01.506Z,10.50
2023-03-15T16:59:29.796Z,10.50
2023-03-15T17:01:58.022Z,10.80
2023-03-15T17:04:26.206Z,10.60
2023-03-15T17:06:54.248Z,10.90
2023-03-15T17:09:22.812Z,10.70
2023-03-15T17:11:52.457Z,10.70
2023-03-15T17:14:25.799Z,11.50
2023-03-15T17:16:53.930Z,11.70
2023-03-15T17:19:22.085Z,12.00
2023-03-15T17:21:50.588Z,11.60
2023-03-15T17:24:18.685Z,10.90
2023-03-15T17:26:46.830Z,11.50
2023-03-15T17:29:15.850Z,4.50
2023-03-15T17:31:44.690Z,11.70
2023-03-15T17:34:12.771Z,11.10
2023-03-15T17:36:41.230Z,11.10
2023-03-15T17:39:12.460Z,11.50
2023-03-15T17:41:42.556Z,5.70
2023-03-15T17:44:10.880Z,5.90
2023-03-15T17:46:39.070Z,10.60
2023-03-15T17:49:09.053Z,11.00
2023-03-15T17:51:37.179Z,14.10
2023-03-15T17:54:15.787Z,10.60
2023-03-15T17:56:44.196Z,5.10
2023-03-15T17:59:12.792Z,9.80
2023-03-15T18:01:43.701Z,10.20
2023-03-15T18:04:12.814Z,10.60
2023-03-15T18:06:41.669Z,6.10
2023-03-15T18:09:11.980Z,10.80
2023-03-15T18:11:42.519Z,10.40
2023-03-15T18:14:14.502Z,9.90
2023-03-15T18:16:43.781Z,9.90
2023-03-15T18:19:12.292Z,9.50
2023-03-15T18:21:40.494Z,9.40
2023-03-15T18:24:13.887Z,9.40
2023-03-15T18:26:43.570Z,5.40
2023-03-15T18:29:11.685Z,8.60
2023-03-15T18:31:40.690Z,7.90
2023-03-15T18:34:12.332Z,8.30
2023-03-15T18:36:40.491Z,8.40
2023-03-15T18:39:09.075Z,8.90
2023-03-15T18:41:37.149Z,5.20
2023-03-15T18:44:05.437Z,4.90
2023-03-15T18:46:33.555Z,8.40
2023-03-15T18:49:01.918Z,8.90
2023-03-15T18:51:30.104Z,8.90
2023-03-15T18:53:58.307Z,4.70
2023-03-15T18:56:43.376Z,5.30
2023-03-15T18:59:16.470Z,9.00
2023-03-15T19:01:55.122Z,5.00
2023-03-15T19:04:23.327Z,8.20
2023-03-15T19:06:51.548Z,7.80
2023-03-15T19:09:22.570Z,7.00
2023-03-15T19:11:50.672Z,3.90
2023-03-15T19:14:18.737Z,6.30
2023-03-15T19:16:46.855Z,6.10
2023-03-15T19:19:15.087Z,3.70
2023-03-15T19:21:49.009Z,3.20
2023-03-15T19:24:17.225Z,2.60
2023-03-15T19:26:45.289Z,5.50
2023-03-15T19:29:13.464Z,5.30
2023-03-15T19:31:41.658Z,3.20
2023-03-15T19:34:09.730Z,2.20
2023-03-15T19:36:37.885Z,4.40
2023-03-15T19:39:10.466Z,4.20
2023-03-15T19:41:38.698Z,3.90
2023-03-15T19:44:07.502Z,2.40
2023-03-15T19:46:35.761Z,2.30
2023-03-15T19:49:07.779Z,1.20
2023-03-15T19:51:38.525Z,3.40
2023-03-15T19:54:08.940Z,1.90
2023-03-15T19:56:39.916Z,2.20
2023-03-15T19:59:11.436Z,4.10
2023-03-15T20:01:49.947Z,1.90
2023-03-15T20:04:18.396Z,3.30
2023-03-15T20:06:55.857Z,2.10
2023-03-15T20:09:27.472Z,2.00
2023-03-15T20:12:35.557Z,1.50
2023-03-15T20:15:19.470Z,2.00
2023-03-15T20:17:48.069Z,1.30
2023-03-15T20:20:20.724Z,1.50
2023-03-15T20:22:49.201Z,3.40
2023-03-15T20:25:18.384Z,1.70
2023-03-15T20:27:46.805Z,1.50
2023-03-15T20:30:18.751Z,3.20
2023-03-15T20:32:47.174Z,1.50
2023-03-15T20:35:18.671Z,1.60
2023-03-15T20:37:49.405Z,1.80
2023-03-15T20:40:17.665Z,1.30
2023-03-15T20:42:46.226Z,1.80
2023-03-15T20:45:14.274Z,1.70
2023-03-15T20:47:42.428Z,1.20
2023-03-15T20:50:11.745Z,1.20
2023-03-15T20:52:47.342Z,1.30
2023-03-15T20:55:18.436Z,1.40
2023-03-15T20:57:46.748Z,1.00
2023-03-15T21:00:24.736Z,0.80
2023-03-15T21:02:53.157Z,0.60
2023-03-15T21:05:24.573Z,0.80
2023-03-15T21:07:53.576Z,1.60
2023-03-15T21:10:23.473Z,0.50
2023-03-15T21:12:57.792Z,0.90
2023-03-15T21:15:25.882Z,0.70
2023-03-15T21:17:53.954Z,1.00
2023-03-15T21:20:22.494Z,0.40
2023-03-15T21:22:51.488Z,0.70
2023-03-15T21:25:19.613Z,0.60
2023-03-15T21:27:47.855Z,0.70
2023-03-15T21:30:16.228Z,0.60
2023-03-15T21:32:44.966Z,0.60
2023-03-15T21:35:13.355Z,1.10
2023-03-15T21:37:41.692Z,1.70
2023-03-15T21:40:11.013Z,0.80
2023-03-15T21:42:39.777Z,0.70
2023-03-15T21:45:08.596Z,0.70
2023-03-15T21:47:37.004Z,0.90
2023-03-15T21:50:06.006Z,0.70
2023-03-15T21:52:34.052Z,0.80
2023-03-15T21:55:02.137Z,1.00
2023-03-15T21:57:30.426Z,1.00
2023-03-15T21:59:58.455Z,0.90
2023-03-15T22:02:26.504Z,1.20
2023-03-15T22:04:54.638Z,1.30
2023-03-15T22:07:22.820Z,1.40
2023-03-15T22:09:53.237Z,1.10
2023-03-15T22:12:21.296Z,1.90
2023-03-15T22:14:56.824Z,0.80
2023-03-15T22:17:32.671Z,0.70
2023-03-15T22:20:01.284Z,1.10
2023-03-15T22:22:29.453Z,1.40
2023-03-15T22:24:57.634Z,1.00
2023-03-15T22:27:25.720Z,0.80
2023-03-15T22:29:53.786Z,0.90
2023-03-15T22:32:22.066Z,0.80
2023-03-15T22:34:50.184Z,0.80
2023-03-15T22:37:18.483Z,1.10
2023-03-15T22:39:46.822Z,0.80
2023-03-15T22:42:14.928Z,1.00
2023-03-15T22:44:46.285Z,0.80
2023-03-15T22:47:14.373Z,0.80
2023-03-15T22:49:42.751Z,0.60
2023-03-15T22:52:13.988Z,1.10
2023-03-15T22:54:43.624Z,0.70
2023-03-15T22:57:14.322Z,0.90
2023-03-15T22:59:42.463Z,0.90
2023-03-15T23:02:12.577Z,0.90
2023-03-15T23:04:45.360Z,0.90
2023-03-15T23:07:16.190Z,1.00
2023-03-15T23:09:44.418Z,1.00
2023-03-15T23:12:13.039Z,0.90
2023-03-15T23:14:41.134Z,1.10
2023-03-15T23:17:10.180Z,0.90
2023-03-15T23:19:38.240Z,0.90
2023-03-15T23:22:06.401Z,0.90
2023-03-15T23:24:37.841Z,0.80
2023-03-15T23:27:06.119Z,0.70
2023-03-15T23:29:47.148Z,0.70
2023-03-15T23:32:22.727Z,0.90
2023-03-15T23:34:51.154Z,0.60
2023-03-15T23:37:20.063Z,0.50
2023-03-15T23:39:48.228Z,0.70
2023-03-15T23:42:16.647Z,0.50
2023-03-15T23:44:47.578Z,0.60
2023-03-15T23:47:15.668Z,0.80
2023-03-15T23:49:43.883Z,0.90
2023-03-15T23:52:15.328Z,0.70
2023-03-15T23:54:43.589Z,0.50
2023-03-15T23:57:14.730Z,0.40
2023-03-15T23:59:42.868Z,0.50
